Time;durP1;ratioP1;P1;durP2;ratioP2;P2;SDS_P1;SDS_P2;PMS_P1;PMS_P2;Temp;Humidity;BMP_temperature;BMP_pressure;BME280_temperature;BME280_humidity;BME280_pressure;Samples;Min_cycle;Max_cycle;Signal;HPM_P1;HPM_P2
2022/04/29 02:44:28;;;;;;;13.57;7.35;;;4.90;99.90;;;;;;5465754;23;20052;-94
2022/04/29 02:47:08;;;;;;;12.88;6.90;;;5.00;99.90;;;;;;4927844;29;20112;-92
2022/04/29 02:49:38;;;;;;;19.50;7.03;;;5.00;99.90;;;;;;4952140;29;20046;-95
2022/04/29 02:52:07;;;;;;;13.32;7.57;;;5.10;99.90;;;;;;4954605;29;20290;-94
2022/04/29 02:54:33;;;;;;;17.10;6.65;;;4.90;99.90;;;;;;4948273;29;20130;-95
2022/04/29 02:57:00;;;;;;;15.55;7.65;;;5.00;99.90;;;;;;4937053;29;20080;-94
2022/04/29 02:59:25;;;;;;;15.90;7.75;;;5.00;99.90;;;;;;4936970;29;20083;-94
2022/04/29 03:01:52;;;;;;;16.30;7.05;;;5.10;99.90;;;;;;4948379;29;20044;-93
2022/04/29 03:04:18;;;;;;;14.82;6.60;;;5.10;99.90;;;;;;4933905;29;20052;-94
2022/04/29 03:06:45;;;;;;;16.67;7.60;;;5.10;99.90;;;;;;4961353;29;20016;-95
2022/04/29 03:09:11;;;;;;;15.40;6.55;;;5.10;99.90;;;;;;4923581;29;20066;-94
2022/04/29 03:11:38;;;;;;;16.52;8.20;;;5.10;99.90;;;;;;4939052;29;20048;-93
2022/04/29 03:14:04;;;;;;;14.13;7.57;;;5.10;99.90;;;;;;4939754;29;20124;-94
2022/04/29 03:16:30;;;;;;;13.82;6.88;;;5.10;99.90;;;;;;4920496;29;20052;-95
2022/04/29 03:18:56;;;;;;;18.65;7.72;;;5.00;99.90;;;;;;4923671;29;20050;-94
2022/04/29 03:21:23;;;;;;;16.10;7.68;;;5.10;99.90;;;;;;4945910;29;20031;-94
2022/04/29 03:23:49;;;;;;;17.85;7.75;;;5.00;99.90;;;;;;4945010;29;20024;-95
2022/04/29 03:26:15;;;;;;;18.27;6.95;;;5.00;99.90;;;;;;4961807;29;20027;-92
2022/04/29 03:28:41;;;;;;;15.52;7.00;;;4.90;99.90;;;;;;4961721;28;20041;-93
2022/04/29 03:31:07;;;;;;;13.07;7.25;;;4.90;99.90;;;;;;4941637;29;20040;-94
2022/04/29 03:33:33;;;;;;;12.20;7.18;;;4.90;99.90;;;;;;4934057;29;20085;-94
2022/04/29 03:35:59;;;;;;;13.82;6.78;;;4.90;99.90;;;;;;4949042;29;20052;-96
2022/04/29 03:38:25;;;;;;;16.80;6.45;;;4.80;99.90;;;;;;4955878;29;20051;-94
2022/04/29 03:40:52;;;;;;;15.07;7.80;;;4.80;99.90;;;;;;4938183;29;20349;-94
2022/04/29 03:43:18;;;;;;;18.75;7.82;;;4.80;99.90;;;;;;4941142;29;20075;-94
2022/04/29 03:45:45;;;;;;;12.75;7.10;;;4.80;99.90;;;;;;4941817;29;20091;-94
2022/04/29 03:48:11;;;;;;;15.48;7.18;;;4.70;99.90;;;;;;4942734;29;20044;-95
2022/04/29 03:50:38;;;;;;;14.07;7.07;;;4.70;99.90;;;;;;4941387;29;20075;-95
2022/04/29 03:53:05;;;;;;;17.02;7.43;;;4.70;99.90;;;;;;4956607;29;20051;-96
2022/04/29 03:55:34;;;;;;;12.63;6.88;;;4.70;99.90;;;;;;4938389;29;20575;-94
2022/04/29 03:58:02;;;;;;;16.23;8.52;;;4.70;99.90;;;;;;4951681;29;20079;-95
2022/04/29 04:00:32;;;;;;;16.17;8.05;;;4.70;99.90;;;;;;4934228;29;20516;-94
2022/04/29 04:03:05;;;;;;;17.50;7.15;;;4.60;99.90;;;;;;4950931;29;20048;-95
2022/04/29 04:05:31;;;;;;;14.57;6.95;;;4.60;99.90;;;;;;4947454;29;20052;-95
2022/04/29 04:07:57;;;;;;;14.15;6.43;;;4.60;99.90;;;;;;4954163;29;20051;-95
2022/04/29 04:10:23;;;;;;;14.10;6.47;;;4.50;99.90;;;;;;4945224;29;20130;-94
2022/04/29 04:12:51;;;;;;;14.55;7.93;;;4.60;99.90;;;;;;4927738;29;20036;-95
2022/04/29 04:15:19;;;;;;;17.42;8.45;;;4.60;99.90;;;;;;4952458;29;20079;-95
2022/04/29 04:17:46;;;;;;;13.93;7.60;;;4.60;99.90;;;;;;4946310;29;20052;-93
2022/04/29 04:20:12;;;;;;;15.27;7.18;;;4.60;99.90;;;;;;4977474;28;20035;-96
2022/04/29 04:22:39;;;;;;;17.92;8.82;;;4.60;99.90;;;;;;4961623;28;20024;-94
2022/04/29 04:25:10;;;;;;;16.48;7.43;;;4.70;99.90;;;;;;4941367;29;20044;-95
2022/04/29 04:27:36;;;;;;;14.82;7.63;;;4.70;99.90;;;;;;4937490;29;20055;-95
2022/04/29 04:30:03;;;;;;;17.23;7.35;;;4.70;99.90;;;;;;4936576;29;20079;-95
2022/04/29 04:32:32;;;;;;;13.88;7.13;;;4.70;99.90;;;;;;4934485;29;20051;-96
2022/04/29 04:34:58;;;;;;;16.08;7.75;;;4.80;99.90;;;;;;4947693;29;20119;-93
2022/04/29 04:37:25;;;;;;;16.02;7.00;;;4.80;99.90;;;;;;4951604;29;20043;-94
2022/04/29 04:39:52;;;;;;;16.02;8.45;;;4.90;99.90;;;;;;4940907;29;20027;-95
2022/04/29 04:42:23;;;;;;;16.75;8.85;;;4.90;99.90;;;;;;4946028;29;20034;-94
2022/04/29 04:44:50;;;;;;;20.65;9.40;;;4.90;99.90;;;;;;4942906;29;20070;-96
2022/04/29 04:47:17;;;;;;;16.70;8.40;;;5.00;99.90;;;;;;4931796;29;20090;-96
2022/04/29 04:49:43;;;;;;;18.10;9.10;;;5.20;99.90;;;;;;4929206;29;20098;-94
2022/04/29 04:52:09;;;;;;;18.50;8.90;;;5.20;99.90;;;;;;4933885;29;20043;-95
2022/04/29 04:54:36;;;;;;;18.60;8.88;;;5.30;99.90;;;;;;4925990;29;20052;-95
2022/04/29 04:57:02;;;;;;;18.00;9.73;;;5.30;99.90;;;;;;4922418;29;20509;-93
2022/04/29 04:59:28;;;;;;;20.98;10.18;;;5.40;99.90;;;;;;4939336;29;20038;-95
2022/04/29 05:01:54;;;;;;;20.17;8.60;;;5.60;99.90;;;;;;5095934;23;20060;-95
2022/04/29 05:07:08;;;;;;;21.48;9.35;;;5.70;99.90;;;;;;5174199;23;20142;-94
2022/04/29 05:09:34;;;;;;;18.35;9.23;;;5.70;99.90;;;;;;5046042;23;20491;-94
2022/04/29 05:12:00;;;;;;;18.10;8.70;;;5.80;99.90;;;;;;4944743;29;20094;-94
2022/04/29 05:14:28;;;;;;;17.77;9.45;;;6.00;99.90;;;;;;4956962;29;20377;-94
2022/04/29 05:16:54;;;;;;;19.55;8.57;;;6.00;99.90;;;;;;4940659;29;20126;-94
2022/04/29 05:19:19;;;;;;;19.20;9.30;;;6.10;99.90;;;;;;4949706;29;20079;-94
2022/04/29 05:21:46;;;;;;;21.73;9.68;;;6.20;99.90;;;;;;4909338;29;20044;-92
2022/04/29 05:24:12;;;;;;;17.73;8.98;;;6.30;99.90;;;;;;4938022;29;20382;-92
2022/04/29 05:26:37;;;;;;;17.45;9.35;;;6.40;99.90;;;;;;4935554;29;20054;-92
2022/04/29 05:29:03;;;;;;;18.45;8.80;;;6.50;99.90;;;;;;4938432;29;20047;-92
2022/04/29 05:31:29;;;;;;;22.77;12.98;;;6.60;99.90;;;;;;4940954;29;20047;-94
2022/04/29 05:33:55;;;;;;;18.42;8.57;;;6.80;99.90;;;;;;4940120;29;20047;-94
2022/04/29 05:36:21;;;;;;;17.55;12.43;;;6.80;99.90;;;;;;4943308;29;20051;-92
2022/04/29 05:44:15;;;;;;;14.15;8.00;;;7.10;99.90;;;;;;4953172;29;20051;-92
2022/04/29 05:46:40;;;;;;;15.50;8.18;;;7.30;99.90;;;;;;4939849;29;20500;-95
2022/04/29 05:49:06;;;;;;;18.13;11.30;;;7.40;99.90;;;;;;4925587;29;20047;-89
2022/04/29 05:51:32;;;;;;;15.00;10.40;;;7.50;99.90;;;;;;4930677;29;20489;-94
2022/04/29 05:54:00;;;;;;;14.18;8.38;;;7.60;99.90;;;;;;4944014;29;20134;-94
2022/04/29 05:56:26;;;;;;;13.70;10.23;;;7.70;99.90;;;;;;4930425;29;20069;-95
2022/04/29 05:58:52;;;;;;;14.65;7.97;;;7.80;99.90;;;;;;4947604;29;20054;-95
2022/04/29 06:01:21;;;;;;;18.30;10.68;;;7.80;99.90;;;;;;4997524;23;20055;-94
2022/04/29 06:03:46;;;;;;;17.13;10.35;;;7.90;99.90;;;;;;4950803;29;20059;-93
2022/04/29 06:06:12;;;;;;;13.55;9.77;;;8.00;99.90;;;;;;4932080;29;20044;-96
2022/04/29 06:08:38;;;;;;;14.40;9.98;;;8.00;99.90;;;;;;5072428;23;20031;-94
2022/04/29 06:11:04;;;;;;;14.57;9.15;;;8.10;99.90;;;;;;5407723;23;20130;-94
2022/04/29 06:13:29;;;;;;;13.55;9.40;;;8.10;99.90;;;;;;5258212;23;20123;-94
2022/04/29 06:15:55;;;;;;;17.13;9.38;;;8.10;99.90;;;;;;5112456;23;20106;-95
2022/04/29 06:18:21;;;;;;;14.00;9.52;;;8.20;99.90;;;;;;5162138;23;20139;-95
2022/04/29 06:20:46;;;;;;;17.17;8.00;;;8.40;99.90;;;;;;4989420;28;20046;-93
2022/04/29 06:23:12;;;;;;;13.23;9.02;;;8.30;99.90;;;;;;4954302;28;20391;-93
2022/04/29 06:25:38;;;;;;;14.52;9.25;;;8.30;99.90;;;;;;4954812;29;20047;-94
2022/04/29 06:28:04;;;;;;;14.55;9.13;;;8.40;99.90;;;;;;4946590;29;20043;-94
2022/04/29 06:30:29;;;;;;;13.77;8.80;;;8.40;99.90;;;;;;4957440;28;20044;-92
2022/04/29 06:32:55;;;;;;;11.98;8.35;;;8.50;99.90;;;;;;4928207;28;20074;-87
2022/04/29 06:35:21;;;;;;;13.50;9.85;;;8.50;99.90;;;;;;4934231;28;20518;-87
2022/04/29 06:37:47;;;;;;;13.02;9.70;;;8.60;99.90;;;;;;4961139;28;20082;-90
2022/04/29 06:40:13;;;;;;;14.25;8.88;;;8.60;99.90;;;;;;4968578;28;20148;-92
2022/04/29 06:42:49;;;;;;;13.82;9.02;;;8.70;99.90;;;;;;4955788;28;20511;-89
2022/04/29 06:45:14;;;;;;;12.18;8.50;;;8.70;99.90;;;;;;4974420;28;20050;-88
2022/04/29 06:47:40;;;;;;;11.48;7.28;;;8.70;99.90;;;;;;4971887;28;20059;-88
2022/04/29 06:50:07;;;;;;;17.90;8.98;;;8.70;99.90;;;;;;4971491;28;20053;-89
2022/04/29 06:52:33;;;;;;;14.30;8.80;;;8.80;99.90;;;;;;4940937;28;20097;-87
2022/04/29 06:54:59;;;;;;;11.95;7.95;;;8.80;99.90;;;;;;4955956;28;20443;-89
2022/04/29 06:57:24;;;;;;;10.85;7.20;;;8.90;99.90;;;;;;4948218;28;20043;-86
2022/04/29 06:59:50;;;;;;;14.57;7.78;;;8.90;99.90;;;;;;4924754;28;20097;-90
2022/04/29 07:02:19;;;;;;;12.25;7.47;;;9.00;99.90;;;;;;4940615;28;20066;-90
2022/04/29 07:04:45;;;;;;;11.00;7.53;;;9.10;99.90;;;;;;4972684;28;20339;-87
2022/04/29 07:07:11;;;;;;;14.38;8.55;;;9.10;99.90;;;;;;4970047;28;20615;-87
2022/04/29 07:09:39;;;;;;;12.52;8.20;;;9.10;99.90;;;;;;4970895;28;20054;-89
2022/04/29 07:12:06;;;;;;;13.55;8.85;;;9.20;99.90;;;;;;4956367;28;20046;-88
2022/04/29 07:14:31;;;;;;;11.23;7.28;;;9.20;99.90;;;;;;4954208;28;20042;-87
2022/04/29 07:16:57;;;;;;;12.00;7.78;;;9.30;99.90;;;;;;4956108;28;20047;-87
2022/04/29 07:19:22;;;;;;;12.57;7.38;;;9.30;99.90;;;;;;4952225;28;20090;-89
2022/04/29 07:21:48;;;;;;;12.98;7.22;;;9.40;99.90;;;;;;4953766;28;20039;-90
2022/04/29 07:24:14;;;;;;;12.75;7.20;;;9.40;99.90;;;;;;4957671;28;20535;-90
2022/04/29 07:26:40;;;;;;;12.50;6.90;;;9.50;99.90;;;;;;4956278;28;20078;-93
2022/04/29 07:29:07;;;;;;;11.75;7.10;;;9.50;99.90;;;;;;4948988;29;20357;-87
2022/04/29 07:31:33;;;;;;;14.98;7.47;;;9.60;99.90;;;;;;4928681;28;20436;-86
2022/04/29 07:33:59;;;;;;;14.02;7.45;;;9.60;99.90;;;;;;4954897;28;20503;-86
2022/04/29 07:41:53;;;;;;;16.67;8.93;;;9.80;99.90;;;;;;4954239;28;20085;-87
2022/04/29 07:44:19;;;;;;;13.30;7.85;;;9.90;99.90;;;;;;4948653;28;20078;-86
2022/04/29 07:46:47;;;;;;;10.93;8.13;;;10.00;99.90;;;;;;4972130;28;20074;-86
2022/04/29 07:49:13;;;;;;;13.50;8.05;;;10.10;99.90;;;;;;4970059;28;20054;-86
2022/04/29 07:51:39;;;;;;;12.40;8.50;;;10.20;99.90;;;;;;4949874;28;20137;-88
2022/04/29 07:54:06;;;;;;;12.10;7.25;;;10.30;99.90;;;;;;4951887;28;20049;-88
2022/04/29 07:56:32;;;;;;;11.30;7.68;;;10.30;99.90;;;;;;4937510;28;20043;-87
2022/04/29 07:58:58;;;;;;;10.30;6.65;;;10.40;99.90;;;;;;4950981;28;20062;-91
2022/04/29 08:01:25;;;;;;;12.05;7.05;;;10.40;99.90;;;;;;4956839;28;20053;-85
2022/04/29 08:03:54;;;;;;;10.10;5.70;;;10.50;99.90;;;;;;4955116;28;20424;-84
2022/04/29 08:06:21;;;;;;;10.65;5.80;;;10.70;99.90;;;;;;4971585;28;20039;-86
2022/04/29 08:08:46;;;;;;;8.80;5.30;;;10.80;99.90;;;;;;4955859;28;20138;-86
2022/04/29 08:11:14;;;;;;;9.23;5.30;;;11.00;99.90;;;;;;4977132;28;20050;-88
2022/04/29 08:13:40;;;;;;;9.27;5.72;;;11.10;99.90;;;;;;4956941;28;20047;-85
2022/04/29 08:16:08;;;;;;;10.25;5.30;;;11.10;99.90;;;;;;4955081;28;20047;-87
2022/04/29 08:18:34;;;;;;;9.18;5.43;;;11.10;99.90;;;;;;4952202;29;20062;-84
2022/04/29 08:21:00;;;;;;;10.75;5.88;;;11.10;99.90;;;;;;4950711;28;20047;-87
2022/04/29 08:23:26;;;;;;;9.60;6.05;;;11.00;99.90;;;;;;4951745;28;20046;-86
2022/04/29 08:25:51;;;;;;;10.07;5.20;;;11.00;99.90;;;;;;4935112;29;20031;-85
2022/04/29 08:28:18;;;;;;;9.85;4.88;;;11.00;99.90;;;;;;4950239;28;20617;-86
2022/04/29 08:30:45;;;;;;;9.25;5.43;;;11.00;99.90;;;;;;4944984;29;20043;-85
2022/04/29 08:33:14;;;;;;;9.00;4.82;;;11.20;99.90;;;;;;4934195;28;20130;-87
2022/04/29 08:35:40;;;;;;;9.73;5.60;;;11.30;99.90;;;;;;4949586;28;20090;-86
2022/04/29 08:38:09;;;;;;;9.30;4.90;;;11.50;99.90;;;;;;4949931;28;20524;-88
2022/04/29 08:40:39;;;;;;;8.20;4.45;;;11.80;99.90;;;;;;4949940;28;20086;-87
2022/04/29 08:43:05;;;;;;;9.73;4.70;;;11.90;99.90;;;;;;4918180;29;20150;-89
2022/04/29 08:45:30;;;;;;;8.80;5.03;;;11.90;99.90;;;;;;4940260;28;20174;-89
2022/04/29 08:47:57;;;;;;;7.85;4.60;;;12.00;99.90;;;;;;4948210;29;20046;-89
2022/04/29 08:50:23;;;;;;;8.48;4.80;;;12.10;99.90;;;;;;4938259;28;20385;-87
2022/04/29 08:52:49;;;;;;;8.95;4.85;;;12.30;99.90;;;;;;4946866;28;20049;-86
2022/04/29 09:00:45;;;;;;;10.38;5.20;;;12.10;99.90;;;;;;4955504;29;20410;-87
2022/04/29 09:03:16;;;;;;;9.90;4.70;;;12.10;99.90;;;;;;4951611;28;20134;-89
2022/04/29 09:05:43;;;;;;;9.63;4.70;;;12.10;99.90;;;;;;4952511;29;20055;-87
2022/04/29 09:08:20;;;;;;;8.98;5.18;;;12.10;99.90;;;;;;4935050;29;20047;-88
2022/04/29 09:11:00;;;;;;;8.25;4.85;;;12.00;99.90;;;;;;4950740;29;20043;-85
2022/04/29 09:13:30;;;;;;;9.45;4.53;;;12.00;99.90;;;;;;4950546;29;20130;-86
2022/04/29 09:15:58;;;;;;;9.85;4.57;;;12.00;99.90;;;;;;4949952;29;20057;-88
2022/04/29 09:18:43;;;;;;;7.18;4.15;;;12.00;99.90;;;;;;4954991;28;20503;-88
2022/04/29 09:21:10;;;;;;;8.90;4.40;;;12.20;99.90;;;;;;4953895;28;20142;-90
2022/04/29 09:23:40;;;;;;;7.88;4.65;;;12.30;99.90;;;;;;4971150;28;20106;-87
2022/04/29 09:26:07;;;;;;;9.60;4.80;;;12.40;99.90;;;;;;4953542;28;20050;-86
2022/04/29 09:28:34;;;;;;;7.82;4.22;;;12.60;99.90;;;;;;4953275;28;20051;-90
2022/04/29 09:31:01;;;;;;;9.40;4.40;;;12.70;99.90;;;;;;4953298;28;20051;-87
2022/04/29 09:33:28;;;;;;;8.95;4.30;;;12.70;99.90;;;;;;4970960;28;20074;-86
2022/04/29 09:35:55;;;;;;;6.93;3.90;;;12.70;99.90;;;;;;4937781;28;20411;-87
2022/04/29 09:41:07;;;;;;;8.15;3.97;;;12.90;99.90;;;;;;4952443;28;20046;-87
2022/04/29 09:43:41;;;;;;;7.90;4.22;;;12.90;99.90;;;;;;4953641;28;20463;-88
2022/04/29 09:46:24;;;;;;;9.77;4.05;;;13.00;99.90;;;;;;4937755;28;20435;-87
2022/04/29 09:48:59;;;;;;;8.70;4.18;;;13.20;99.90;;;;;;4953596;28;20051;-86
2022/04/29 09:51:46;;;;;;;9.85;4.70;;;13.30;99.90;;;;;;4970491;28;20097;-87
2022/04/29 09:54:28;;;;;;;9.02;4.68;;;13.40;99.90;;;;;;4969855;28;20042;-85
2022/04/29 09:57:06;;;;;;;9.15;4.60;;;13.40;99.90;;;;;;4952614;28;20075;-82
2022/04/29 09:59:42;;;;;;;8.02;4.55;;;13.30;99.90;;;;;;4950994;29;20047;-84
2022/04/29 10:02:10;;;;;;;7.78;4.65;;;13.20;99.90;;;;;;4933692;29;20496;-84
2022/04/29 10:04:38;;;;;;;9.60;4.32;;;13.20;99.90;;;;;;4934087;29;20174;-83
2022/04/29 10:07:05;;;;;;;8.45;4.55;;;13.20;99.90;;;;;;4951100;29;20043;-83
2022/04/29 10:09:36;;;;;;;7.13;4.10;;;13.10;99.90;;;;;;4922451;28;20105;-84
2022/04/29 10:12:04;;;;;;;6.68;3.50;;;13.20;99.90;;;;;;4952405;28;20054;-84
2022/04/29 10:14:33;;;;;;;6.43;3.35;;;13.20;99.90;;;;;;4931456;28;20472;-85
2022/04/29 10:22:41;;;;;;;7.90;3.97;;;13.10;99.90;;;;;;4967157;28;20377;-84
2022/04/29 10:25:08;;;;;;;9.15;3.38;;;13.00;99.90;;;;;;4950484;28;20062;-85
2022/04/29 10:27:38;;;;;;;8.07;3.75;;;13.10;99.90;;;;;;4953007;28;20047;-86
2022/04/29 10:30:04;;;;;;;9.02;3.85;;;13.00;99.90;;;;;;4970302;28;20047;-86
2022/04/29 10:32:30;;;;;;;7.40;3.40;;;13.00;99.90;;;;;;4948749;28;20063;-88
2022/04/29 10:34:55;;;;;;;9.07;3.90;;;13.00;99.90;;;;;;4951895;28;20039;-84
2022/04/29 10:37:32;;;;;;;7.53;3.67;;;13.00;99.90;;;;;;4953808;28;20047;-86
2022/04/29 10:40:10;;;;;;;8.25;3.97;;;12.80;99.90;;;;;;4952604;28;20148;-86
2022/04/29 10:43:09;;;;;;;7.75;3.65;;;12.60;99.90;;;;;;4952770;28;20038;-86
2022/04/29 10:45:36;;;;;;;8.43;3.90;;;12.50;99.90;;;;;;4936906;28;20391;-86
2022/04/29 10:48:34;;;;;;;8.32;3.67;;;12.40;99.90;;;;;;4947963;28;20054;-86
2022/04/29 10:51:24;;;;;;;8.13;4.40;;;12.40;99.90;;;;;;4933358;29;20403;-84
2022/04/29 10:53:53;;;;;;;7.32;4.10;;;12.40;99.90;;;;;;4963402;28;20038;-85
2022/04/29 10:56:31;;;;;;;7.35;3.72;;;12.60;99.90;;;;;;4951026;28;20149;-85
2022/04/29 10:59:21;;;;;;;7.47;3.83;;;12.70;99.90;;;;;;4936062;28;20524;-86
2022/04/29 11:02:06;;;;;;;7.47;3.70;;;12.70;99.90;;;;;;4959028;28;20054;-86
2022/04/29 11:04:31;;;;;;;8.00;3.30;;;12.70;99.90;;;;;;4947557;28;20046;-91
2022/04/29 11:06:57;;;;;;;9.13;3.72;;;12.80;99.90;;;;;;4952208;28;20057;-86
2022/04/29 11:09:46;;;;;;;9.02;3.72;;;12.70;99.90;;;;;;4949720;28;20138;-87
2022/04/29 11:12:39;;;;;;;7.88;3.85;;;12.60;99.90;;;;;;4952212;28;20457;-87
2022/04/29 11:15:11;;;;;;;9.35;4.28;;;12.80;99.90;;;;;;4952241;28;20043;-86
2022/04/29 11:17:38;;;;;;;8.88;4.07;;;12.70;99.90;;;;;;4968219;28;20347;-89
2022/04/29 11:20:21;;;;;;;7.78;4.13;;;12.70;99.90;;;;;;4959541;28;20058;-88
2022/04/29 11:25:55;;;;;;;8.07;4.55;;;12.60;99.90;;;;;;4949733;28;20042;-85
2022/04/29 11:28:21;;;;;;;8.80;4.35;;;12.70;99.90;;;;;;4955955;28;20050;-89
2022/04/29 11:30:49;;;;;;;7.85;4.00;;;12.80;99.90;;;;;;4970773;28;20042;-87
2022/04/29 11:33:20;;;;;;;8.68;4.28;;;12.90;99.90;;;;;;4948383;28;20039;-88
2022/04/29 11:35:49;;;;;;;8.68;4.57;;;13.10;99.90;;;;;;4954210;28;20043;-89
2022/04/29 11:38:15;;;;;;;8.43;4.15;;;13.10;99.90;;;;;;4953929;28;20122;-85
2022/04/29 11:40:41;;;;;;;8.60;4.60;;;13.00;99.90;;;;;;4973460;28;20423;-88
2022/04/29 11:43:08;;;;;;;7.18;4.07;;;13.00;99.90;;;;;;4976009;28;20043;-88
2022/04/29 11:45:34;;;;;;;8.70;4.78;;;13.00;99.90;;;;;;4967193;28;20051;-86
2022/04/29 11:48:04;;;;;;;7.32;4.70;;;13.00;99.90;;;;;;4955431;28;20043;-87
2022/04/29 11:50:31;;;;;;;8.45;4.72;;;13.10;99.90;;;;;;4954899;28;20541;-89
2022/04/29 11:53:07;;;;;;;9.20;4.95;;;13.00;99.90;;;;;;4972750;28;20051;-86
2022/04/29 11:55:33;;;;;;;9.23;4.90;;;13.10;99.90;;;;;;4972402;28;20057;-88
2022/04/29 11:57:58;;;;;;;8.18;5.47;;;13.20;99.90;;;;;;4956489;28;20125;-89
2022/04/29 12:00:26;;;;;;;8.20;5.03;;;13.10;99.90;;;;;;4980256;28;20039;-88
2022/04/29 12:02:52;;;;;;;10.55;5.38;;;13.00;99.90;;;;;;4980967;28;20043;-87
2022/04/29 12:05:23;;;;;;;10.13;6.40;;;13.00;99.90;;;;;;4954370;28;20499;-89
2022/04/29 12:07:49;;;;;;;10.55;6.43;;;12.90;99.90;;;;;;4972881;28;20043;-90
2022/04/29 12:10:15;;;;;;;8.27;6.38;;;13.10;99.90;;;;;;4939485;28;20053;-88
2022/04/29 12:12:41;;;;;;;9.40;5.53;;;13.20;99.90;;;;;;4972340;28;20053;-88
2022/04/29 12:15:09;;;;;;;11.02;6.68;;;13.30;99.90;;;;;;4955551;28;20396;-89
2022/04/29 12:17:38;;;;;;;8.85;6.38;;;13.40;99.90;;;;;;4972749;28;20086;-89
2022/04/29 12:20:05;;;;;;;8.93;6.63;;;13.40;99.90;;;;;;4954358;28;20051;-86
2022/04/29 12:22:36;;;;;;;8.98;6.30;;;13.40;99.90;;;;;;4971957;28;20480;-85
2022/04/29 12:25:21;;;;;;;8.95;6.18;;;13.30;99.90;;;;;;4971599;28;20121;-91
2022/04/29 12:28:23;;;;;;;8.25;5.88;;;13.20;99.90;;;;;;4954727;28;20051;-89
2022/04/29 12:37:05;;;;;;;11.00;6.90;;;13.30;99.90;;;;;;4971886;28;20047;-91
2022/04/29 12:39:40;;;;;;;9.13;6.30;;;13.40;99.90;;;;;;4953845;28;20039;-88
2022/04/29 12:42:11;;;;;;;10.02;6.38;;;13.30;99.90;;;;;;4954597;28;20059;-88
2022/04/29 12:45:04;;;;;;;9.05;6.65;;;13.30;99.90;;;;;;4971329;28;20039;-87
2022/04/29 12:47:52;;;;;;;9.95;6.40;;;13.10;99.90;;;;;;4954389;28;20219;-87
2022/04/29 12:50:31;;;;;;;8.48;6.03;;;13.20;99.90;;;;;;4971356;28;20043;-87
2022/04/29 12:53:00;;;;;;;9.38;6.13;;;13.20;99.90;;;;;;4971680;28;20100;-88
2022/04/29 12:55:27;;;;;;;9.10;5.88;;;13.10;99.90;;;;;;4954601;28;20058;-87
2022/04/29 12:58:02;;;;;;;9.48;6.05;;;13.00;99.90;;;;;;4954154;28;20285;-87
2022/04/29 13:00:27;;;;;;;9.30;6.00;;;13.00;99.90;;;;;;4952035;28;20055;-86
2022/04/29 13:03:03;;;;;;;10.20;6.03;;;13.00;99.90;;;;;;4935857;28;20051;-88
2022/04/29 13:05:30;;;;;;;11.32;6.25;;;13.00;99.90;;;;;;4934179;29;20078;-87
2022/04/29 13:07:55;;;;;;;8.75;6.13;;;13.00;99.90;;;;;;4954095;28;20093;-86
2022/04/29 13:10:22;;;;;;;8.57;5.53;;;13.00;99.90;;;;;;4954307;28;20074;-89
2022/04/29 13:12:48;;;;;;;8.90;5.80;;;13.10;99.90;;;;;;4953656;28;20126;-91
2022/04/29 13:15:14;;;;;;;10.27;5.97;;;13.30;99.90;;;;;;4954002;28;20474;-85
2022/04/29 13:17:40;;;;;;;10.40;6.13;;;13.20;99.90;;;;;;4971187;28;20118;-88
2022/04/29 13:20:08;;;;;;;9.10;5.55;;;13.10;99.90;;;;;;4950598;29;20134;-87
2022/04/29 13:22:34;;;;;;;10.05;5.90;;;13.10;99.90;;;;;;4950650;29;20043;-87
2022/04/29 13:25:00;;;;;;;9.55;6.18;;;13.10;99.90;;;;;;4951542;29;20051;-90
2022/04/29 13:27:26;;;;;;;8.88;5.80;;;13.00;99.90;;;;;;4951935;29;20046;-90
2022/04/29 13:29:51;;;;;;;8.93;6.30;;;13.00;99.90;;;;;;4915492;29;20564;-87
2022/04/29 13:32:17;;;;;;;11.02;6.60;;;13.00;99.90;;;;;;4931950;29;20505;-87
2022/04/29 13:34:42;;;;;;;9.25;6.03;;;13.00;99.90;;;;;;4931162;29;20038;-88
2022/04/29 13:37:08;;;;;;;10.05;6.53;;;13.00;99.90;;;;;;4932446;29;20051;-87
2022/04/29 13:39:33;;;;;;;10.35;6.35;;;13.10;99.90;;;;;;4931598;29;20032;-88
2022/04/29 13:41:59;;;;;;;10.93;5.85;;;13.20;99.90;;;;;;4930924;29;20054;-88
2022/04/29 13:44:25;;;;;;;11.25;6.68;;;13.30;99.90;;;;;;4918042;29;20048;-88
2022/04/29 13:46:50;;;;;;;9.70;6.03;;;13.40;99.90;;;;;;4942149;29;20393;-87
2022/04/29 13:49:16;;;;;;;8.50;5.28;;;13.40;99.90;;;;;;4949502;28;20496;-87
2022/04/29 13:51:41;;;;;;;8.45;5.63;;;13.30;99.90;;;;;;4950743;29;20050;-87
2022/04/29 13:54:08;;;;;;;10.80;5.88;;;13.30;99.90;;;;;;4950294;29;20466;-90
2022/04/29 13:56:35;;;;;;;8.45;5.32;;;13.20;99.90;;;;;;4950025;29;20051;-87
2022/04/29 13:59:02;;;;;;;9.50;5.43;;;13.20;99.90;;;;;;4949795;29;20159;-88
2022/04/29 14:01:27;;;;;;;10.38;5.88;;;13.20;99.90;;;;;;4950966;29;20388;-87
2022/04/29 14:03:53;;;;;;;8.98;5.60;;;13.20;99.90;;;;;;4949560;29;20126;-86
2022/04/29 14:06:19;;;;;;;9.45;5.85;;;13.20;99.90;;;;;;4949035;28;20043;-85
2022/04/29 14:08:44;;;;;;;10.43;5.55;;;13.10;99.90;;;;;;4949662;29;20043;-86
2022/04/29 14:11:13;;;;;;;10.30;5.95;;;13.10;99.90;;;;;;4945350;29;20407;-87
2022/04/29 14:13:39;;;;;;;8.95;5.47;;;13.10;99.90;;;;;;4937767;29;20048;-87
2022/04/29 14:16:05;;;;;;;9.52;5.53;;;13.20;99.90;;;;;;4940010;28;20122;-89
2022/04/29 14:18:31;;;;;;;9.05;5.43;;;13.20;99.50;;;;;;4948948;28;20134;-89
2022/04/29 14:20:57;;;;;;;9.10;5.25;;;13.10;99.50;;;;;;4943699;29;20063;-86
2022/04/29 14:23:23;;;;;;;9.95;5.15;;;13.10;99.90;;;;;;4948378;29;20040;-88
2022/04/29 14:25:48;;;;;;;8.30;4.88;;;13.20;99.70;;;;;;4949006;29;20123;-87
2022/04/29 14:28:14;;;;;;;7.65;4.57;;;13.20;99.90;;;;;;4954792;29;20035;-88
2022/04/29 14:30:40;;;;;;;9.32;5.05;;;13.30;99.30;;;;;;4954687;28;20131;-86
2022/04/29 14:33:07;;;;;;;9.23;5.22;;;13.40;99.30;;;;;;4948761;28;20036;-88
2022/04/29 14:35:33;;;;;;;9.02;4.60;;;13.50;99.10;;;;;;4949655;29;20448;-90
2022/04/29 14:37:59;;;;;;;8.50;4.50;;;13.50;99.40;;;;;;4949944;29;20039;-87
2022/04/29 14:40:24;;;;;;;7.72;4.15;;;13.50;98.80;;;;;;4945495;28;20043;-90
2022/04/29 14:42:52;;;;;;;8.35;4.10;;;13.40;98.60;;;;;;4943780;29;20047;-88
2022/04/29 14:45:18;;;;;;;9.75;3.90;;;13.20;98.30;;;;;;4946587;29;20051;-87
2022/04/29 14:47:45;;;;;;;7.75;3.95;;;13.20;98.70;;;;;;4948638;28;20071;-91
2022/04/29 14:50:11;;;;;;;7.18;3.85;;;13.20;99.20;;;;;;4944464;29;20436;-89
2022/04/29 14:52:39;;;;;;;7.35;4.18;;;13.20;98.60;;;;;;4943819;29;20081;-93
2022/04/29 14:55:05;;;;;;;8.82;4.13;;;13.10;99.10;;;;;;4952031;29;20402;-94
2022/04/29 14:57:31;;;;;;;6.45;4.00;;;13.10;99.40;;;;;;4936236;29;20107;-92
2022/04/29 15:00:00;;;;;;;7.65;4.20;;;13.10;99.60;;;;;;4951328;28;20035;-93
2022/04/29 15:02:26;;;;;;;7.13;3.90;;;13.00;99.90;;;;;;4954803;28;20083;-94
2022/04/29 15:04:55;;;;;;;7.88;4.35;;;13.00;99.90;;;;;;4939788;29;20074;-91
2022/04/29 15:07:24;;;;;;;8.68;4.50;;;13.00;99.90;;;;;;4935407;29;20044;-90
2022/04/29 15:15:34;;;;;;;7.63;4.30;;;12.80;99.90;;;;;;4956013;29;20055;-91
2022/04/29 15:18:00;;;;;;;7.45;4.10;;;12.80;99.90;;;;;;4941166;28;20087;-92
2022/04/29 15:20:26;;;;;;;9.95;4.50;;;12.60;99.90;;;;;;4974727;28;20063;-91
2022/04/29 15:22:51;;;;;;;9.38;4.60;;;12.50;99.90;;;;;;4956979;28;20403;-89
2022/04/29 15:25:18;;;;;;;10.13;4.35;;;12.50;99.90;;;;;;4939228;29;20150;-91
2022/04/29 15:27:44;;;;;;;8.27;4.20;;;12.40;99.90;;;;;;4954979;29;20055;-90
2022/04/29 15:30:10;;;;;;;9.15;4.45;;;12.40;99.90;;;;;;4974763;28;20043;-92
2022/04/29 15:32:36;;;;;;;7.78;4.18;;;12.40;99.90;;;;;;4955243;28;20326;-92
2022/04/29 15:35:01;;;;;;;8.57;4.18;;;12.20;99.90;;;;;;4927228;28;20046;-88
2022/04/29 15:37:27;;;;;;;7.68;4.05;;;12.20;99.90;;;;;;4958366;28;20522;-93
2022/04/29 15:39:52;;;;;;;8.10;4.60;;;12.20;99.90;;;;;;4973599;28;20404;-89
2022/04/29 15:42:18;;;;;;;7.00;4.22;;;12.10;99.90;;;;;;4954561;28;20062;-91
2022/04/29 15:44:45;;;;;;;10.00;4.78;;;12.10;99.90;;;;;;4972230;28;20533;-92
2022/04/29 15:47:11;;;;;;;9.00;4.78;;;12.10;99.90;;;;;;4974335;28;20085;-89
2022/04/29 15:49:36;;;;;;;9.00;5.03;;;12.10;99.90;;;;;;4970820;28;20062;-89
2022/04/29 15:52:02;;;;;;;7.97;4.88;;;12.10;99.90;;;;;;4970695;29;20075;-90
2022/04/29 15:54:29;;;;;;;11.73;5.30;;;12.10;99.90;;;;;;4961959;28;20499;-89
2022/04/29 15:56:54;;;;;;;8.93;4.80;;;12.00;99.90;;;;;;4956931;28;20488;-90
2022/04/29 15:59:20;;;;;;;12.50;5.28;;;12.00;99.90;;;;;;4955634;28;20045;-94
2022/04/29 16:01:46;;;;;;;9.73;5.40;;;11.90;99.90;;;;;;4974893;28;20097;-89
2022/04/29 16:04:12;;;;;;;9.68;5.50;;;11.70;99.90;;;;;;4954444;28;20546;-88
2022/04/29 16:06:39;;;;;;;10.82;5.35;;;11.70;99.90;;;;;;4972131;28;20054;-87
2022/04/29 16:09:06;;;;;;;9.05;5.57;;;11.60;99.90;;;;;;4952889;28;20081;-92
2022/04/29 16:11:31;;;;;;;10.50;5.22;;;11.60;99.90;;;;;;4952631;28;20043;-90
2022/04/29 16:13:57;;;;;;;11.25;6.20;;;11.60;99.90;;;;;;4968609;28;20479;-90
2022/04/29 16:16:23;;;;;;;9.90;5.50;;;11.60;99.90;;;;;;4953984;28;20555;-87